Terminal Aerodrome Forecast
Issued by NWS Greer, SC

Home | Current Version | Previous Version | Text Only | Print | Product List | Glossary On
Versions: 1 2 3 4 5 6 7 8 9 10 11 12 13
374
FTUS42 KGSP 261731
TAFGSP
TAF
KGSP 261731Z 2618/2718 23008KT P6SM BKN060
     FM262000 22008KT P6SM VCTS BKN050CB
     FM270000 21003KT P6SM SCT060 BKN150
     FM271500 19006KT P6SM SCT050 BKN120=

USA.gov is the U.S. government's official web portal to all federal, state and local government web resources and services.